createdAt,value
2024-02-13T00:01:41.971Z,13.27
2024-02-13T00:04:11.304Z,18.07
2024-02-13T00:06:39.627Z,13.30
2024-02-13T00:09:07.777Z,11.03
2024-02-13T00:11:37.371Z,13.20
2024-02-13T00:14:08.854Z,11.03
2024-02-13T00:16:39.269Z,19.20
2024-02-13T00:19:07.515Z,11.63
2024-02-13T00:21:35.705Z,11.63
2024-02-13T00:24:03.858Z,9.90
2024-02-13T00:26:32.011Z,14.60
2024-02-13T00:29:04.071Z,11.73
2024-02-13T00:31:32.998Z,9.60
2024-02-13T00:34:01.113Z,11.20
2024-02-13T00:36:29.286Z,11.13
2024-02-13T00:38:58.206Z,15.50
2024-02-13T00:41:27.303Z,12.77
2024-02-13T00:43:56.110Z,17.33
2024-02-13T00:46:25.556Z,14.93
2024-02-13T00:48:57.149Z,14.17
2024-02-13T00:51:26.192Z,15.60
2024-02-13T00:53:54.330Z,11.83
2024-02-13T00:56:22.948Z,15.17
2024-02-13T00:58:51.127Z,11.30
2024-02-13T01:01:19.317Z,11.80
2024-02-13T01:03:49.311Z,10.07
2024-02-13T01:06:17.452Z,13.70
2024-02-13T01:08:45.973Z,15.43
2024-02-13T01:11:14.109Z,11.70
2024-02-13T01:13:42.592Z,9.50
2024-02-13T01:16:10.827Z,12.90
2024-02-13T01:18:39.014Z,16.27
2024-02-13T01:21:12.551Z,10.13
2024-02-13T01:23:40.633Z,11.53
2024-02-13T01:26:09.008Z,10.47
2024-02-13T01:28:37.349Z,15.20
2024-02-13T01:31:05.920Z,12.93
2024-02-13T01:33:34.547Z,9.83
2024-02-13T01:36:05.427Z,11.40
2024-02-13T01:38:35.057Z,12.53
2024-02-13T01:41:03.831Z,18.60
2024-02-13T01:43:33.314Z,17.17
2024-02-13T01:46:05.433Z,10.17
2024-02-13T01:48:34.081Z,13.43
2024-02-13T01:51:03.976Z,11.00
2024-02-13T01:53:35.972Z,9.87
2024-02-13T01:56:06.431Z,14.27
2024-02-13T01:58:35.083Z,9.10
2024-02-13T02:01:04.401Z,8.57
2024-02-13T02:03:34.860Z,12.70
2024-02-13T02:06:04.355Z,12.50
2024-02-13T02:08:34.788Z,13.00
2024-02-13T02:11:02.996Z,12.97
2024-02-13T02:13:31.983Z,14.20
2024-02-13T02:16:00.136Z,16.63
2024-02-13T02:18:28.784Z,16.23
2024-02-13T02:20:57.914Z,11.80
2024-02-13T02:23:27.700Z,10.50
2024-02-13T02:25:57.288Z,12.30
2024-02-13T02:28:25.978Z,13.53
2024-02-13T02:30:55.236Z,9.30
2024-02-13T02:33:23.898Z,10.43
2024-02-13T02:35:52.453Z,11.30
2024-02-13T02:38:22.049Z,12.33
2024-02-13T02:40:50.951Z,10.77
2024-02-13T02:43:20.796Z,8.17
2024-02-13T02:45:49.044Z,11.10
2024-02-13T02:48:17.984Z,11.27
2024-02-13T02:50:46.487Z,19.33
2024-02-13T02:53:18.313Z,9.23
2024-02-13T02:55:48.130Z,10.37
2024-02-13T02:58:16.341Z,11.53
2024-02-13T03:00:45.948Z,11.47
2024-02-13T03:03:14.141Z,12.17
2024-02-13T03:05:44.911Z,14.07
2024-02-13T03:08:13.765Z,9.27
2024-02-13T03:10:43.066Z,12.33
2024-02-13T03:13:14.679Z,11.60
2024-02-13T03:15:42.960Z,14.70
2024-02-13T03:18:14.810Z,10.77
2024-02-13T03:20:43.819Z,9.93
2024-02-13T03:23:12.049Z,10.23
2024-02-13T03:25:40.211Z,7.90
2024-02-13T03:28:08.350Z,9.90
2024-02-13T03:30:36.500Z,11.50
2024-02-13T03:33:05.052Z,12.77
2024-02-13T03:35:34.570Z,11.80
2024-02-13T03:38:03.317Z,13.87
2024-02-13T03:40:31.492Z,11.70
2024-02-13T03:43:01.088Z,13.30
2024-02-13T03:45:29.212Z,12.13
2024-02-13T03:47:58.302Z,13.20
2024-02-13T03:50:27.780Z,14.60
2024-02-13T03:52:57.991Z,10.80
2024-02-13T03:55:26.204Z,12.37
2024-02-13T03:57:54.365Z,11.13
2024-02-13T04:00:22.777Z,20.50
2024-02-13T04:02:51.137Z,12.00
2024-02-13T04:05:19.429Z,11.40
2024-02-13T04:07:47.613Z,8.80
2024-02-13T04:10:17.303Z,10.10
2024-02-13T04:12:47.122Z,12.27
2024-02-13T04:15:15.495Z,11.90
2024-02-13T04:17:43.718Z,11.90
2024-02-13T04:20:13.186Z,15.90
2024-02-13T04:22:41.656Z,10.20
2024-02-13T04:25:10.378Z,13.93
2024-02-13T04:27:40.430Z,13.00
2024-02-13T04:30:12.322Z,9.00
2024-02-13T04:32:40.773Z,12.07
2024-02-13T04:35:10.357Z,9.83
2024-02-13T04:37:38.927Z,11.00
2024-02-13T04:40:11.072Z,10.83
2024-02-13T04:42:42.111Z,13.70
2024-02-13T04:45:10.632Z,9.00
2024-02-13T04:47:38.997Z,10.13
2024-02-13T04:50:09.573Z,10.90
2024-02-13T04:52:38.673Z,11.43
2024-02-13T04:55:07.593Z,9.57
2024-02-13T04:57:35.734Z,9.00
2024-02-13T05:00:15.185Z,10.93
2024-02-13T05:02:47.528Z,9.43
2024-02-13T05:05:33.876Z,13.20
2024-02-13T05:08:02.291Z,13.87
2024-02-13T05:10:30.618Z,13.13
2024-02-13T05:12:58.782Z,12.23
2024-02-13T05:15:28.206Z,10.70
2024-02-13T05:17:56.390Z,10.27
2024-02-13T05:20:24.758Z,9.70
2024-02-13T05:22:53.777Z,8.40
2024-02-13T05:25:22.633Z,11.17
2024-02-13T05:27:51.359Z,9.03
2024-02-13T05:30:21.577Z,13.60
2024-02-13T05:32:51.980Z,9.50
2024-02-13T05:35:20.676Z,11.27
2024-02-13T05:37:49.007Z,9.10
2024-02-13T05:40:17.147Z,11.17
2024-02-13T05:42:45.551Z,10.37
2024-02-13T05:45:13.769Z,12.63
2024-02-13T05:47:43.038Z,13.20
2024-02-13T05:50:17.445Z,10.80
2024-02-13T05:52:48.268Z,10.93
2024-02-13T05:55:17.389Z,11.43
2024-02-13T05:57:45.593Z,7.17
2024-02-13T06:00:16.219Z,8.30
2024-02-13T06:02:44.925Z,7.27
2024-02-13T06:05:15.804Z,9.40
2024-02-13T06:07:45.189Z,9.83
2024-02-13T06:10:15.110Z,7.10
2024-02-13T06:12:43.513Z,11.47
2024-02-13T06:15:11.906Z,14.20
2024-02-13T06:17:40.346Z,9.73
2024-02-13T06:20:09.816Z,13.27
2024-02-13T06:22:39.853Z,10.00
2024-02-13T06:25:12.258Z,11.00
2024-02-13T06:27:40.772Z,8.93
2024-02-13T06:30:09.960Z,13.70
2024-02-13T06:32:39.294Z,7.03
2024-02-13T06:35:08.069Z,14.10
2024-02-13T06:37:36.329Z,11.60
2024-02-13T06:40:06.760Z,11.50
2024-02-13T06:42:34.863Z,14.03
2024-02-13T06:45:03.583Z,11.10
2024-02-13T06:47:32.022Z,10.93
2024-02-13T06:50:01.755Z,14.13
2024-02-13T06:52:30.849Z,26.97
2024-02-13T06:54:57.977Z,30.47
2024-02-13T06:57:27.556Z,30.43
2024-02-13T06:59:55.889Z,27.50
2024-02-13T07:02:24.106Z,21.30
2024-02-13T07:04:52.398Z,18.37
2024-02-13T07:09:54.252Z,19.80
2024-02-13T07:12:22.945Z,23.20
2024-02-13T07:14:53.258Z,31.37
2024-02-13T07:17:21.593Z,20.67
2024-02-13T07:19:50.074Z,22.77
2024-02-13T07:22:18.644Z,28.50
2024-02-13T07:24:46.725Z,21.67
2024-02-13T07:27:16.630Z,22.47
2024-02-13T07:29:45.316Z,21.10
2024-02-13T07:32:15.394Z,10.87
2024-02-13T07:34:43.897Z,28.33
2024-02-13T07:37:12.124Z,13.13
2024-02-13T07:39:40.209Z,14.20
2024-02-13T07:42:08.885Z,12.00
2024-02-13T07:44:37.505Z,8.03
2024-02-13T07:47:05.916Z,10.13
2024-02-13T07:49:35.514Z,10.00
2024-02-13T07:52:03.772Z,8.90
2024-02-13T07:54:31.882Z,5.23
2024-02-13T07:57:00.297Z,6.80
2024-02-13T07:59:29.794Z,8.40
2024-02-13T08:01:58.692Z,11.27
2024-02-13T08:04:26.857Z,5.07
2024-02-13T08:06:59.337Z,5.80
2024-02-13T08:09:27.557Z,12.33
2024-02-13T08:11:56.256Z,4.20
2024-02-13T08:14:24.494Z,4.07
2024-02-13T08:16:52.599Z,5.93
2024-02-13T08:19:21.088Z,3.97
2024-02-13T08:21:49.532Z,4.23
2024-02-13T08:24:20.475Z,4.70
2024-02-13T08:26:49.587Z,9.10
2024-02-13T08:29:18.453Z,6.63
2024-02-13T08:31:46.791Z,4.90
2024-02-13T08:34:15.562Z,6.87
2024-02-13T08:36:43.859Z,7.40
2024-02-13T08:39:12.218Z,10.20
2024-02-13T08:41:41.791Z,9.20
2024-02-13T08:44:10.764Z,3.70
2024-02-13T08:46:39.081Z,3.97
2024-02-13T08:49:07.535Z,2.87
2024-02-13T08:51:38.199Z,5.93
2024-02-13T08:54:07.123Z,7.80
2024-02-13T08:56:35.386Z,5.37
2024-02-13T08:59:05.810Z,5.53
2024-02-13T09:01:33.981Z,3.40
2024-02-13T09:04:02.603Z,7.30
2024-02-13T09:06:31.697Z,5.17
2024-02-13T09:09:00.601Z,3.20
2024-02-13T09:11:32.131Z,4.13
2024-02-13T09:14:00.423Z,2.50
2024-02-13T09:16:30.052Z,4.70
2024-02-13T09:18:58.740Z,3.93
2024-02-13T09:21:27.090Z,2.90
2024-02-13T09:23:55.713Z,5.30
2024-02-13T09:26:24.483Z,1.97
2024-02-13T09:28:53.695Z,6.10
2024-02-13T09:31:21.837Z,4.80
2024-02-13T09:33:51.656Z,5.60
2024-02-13T09:36:21.583Z,4.60
2024-02-13T09:38:49.921Z,3.53
2024-02-13T09:41:18.480Z,2.40
2024-02-13T09:43:50.304Z,5.37
2024-02-13T09:46:20.445Z,2.70
2024-02-13T09:48:50.332Z,7.10
2024-02-13T09:51:21.335Z,8.40
2024-02-13T09:53:50.241Z,2.33
2024-02-13T09:56:19.822Z,3.53
2024-02-13T09:58:49.009Z,2.60
2024-02-13T10:01:17.551Z,5.13
2024-02-13T10:03:46.569Z,4.50
2024-02-13T10:06:15.185Z,3.07
2024-02-13T10:08:51.134Z,3.57
2024-02-13T10:11:19.480Z,5.07
2024-02-13T10:13:48.651Z,4.30
2024-02-13T10:16:21.058Z,5.90
2024-02-13T10:18:52.862Z,2.60
2024-02-13T10:21:22.733Z,3.50
2024-02-13T10:23:54.789Z,3.93
2024-02-13T10:26:23.989Z,4.03
2024-02-13T10:28:56.130Z,4.33
2024-02-13T10:31:25.653Z,3.40
2024-02-13T10:33:55.803Z,3.03
2024-02-13T10:36:24.959Z,4.50
2024-02-13T10:39:01.566Z,2.50
2024-02-13T10:41:34.487Z,5.27
2024-02-13T10:44:04.863Z,5.13
2024-02-13T10:46:39.705Z,2.70
2024-02-13T10:49:18.643Z,4.13
2024-02-13T10:51:47.554Z,21.33
2024-02-13T10:54:19.104Z,3.63
2024-02-13T10:56:48.105Z,4.97
2024-02-13T10:59:16.988Z,4.70
2024-02-13T11:01:48.359Z,8.00
2024-02-13T11:04:18.781Z,4.63
2024-02-13T11:06:48.256Z,3.67
2024-02-13T11:09:19.207Z,7.53
2024-02-13T11:11:47.919Z,4.17
2024-02-13T11:14:17.900Z,9.87
2024-02-13T11:16:53.459Z,7.23
2024-02-13T11:19:22.392Z,4.23
2024-02-13T11:21:54.554Z,5.07
2024-02-13T11:24:24.358Z,2.80
2024-02-13T11:26:52.600Z,3.90
2024-02-13T11:29:23.333Z,1.77
2024-02-13T11:31:56.647Z,7.33
2024-02-13T11:34:40.846Z,2.73
2024-02-13T11:37:18.384Z,3.73
2024-02-13T11:39:50.126Z,5.10
2024-02-13T11:42:19.930Z,5.73
2024-02-13T11:44:50.458Z,6.00
2024-02-13T11:47:21.283Z,2.80
2024-02-13T11:49:51.286Z,2.83
2024-02-13T11:52:19.722Z,3.33
2024-02-13T11:54:50.186Z,4.50
2024-02-13T11:57:19.297Z,5.20
2024-02-13T11:59:57.436Z,6.83
2024-02-13T12:02:26.043Z,3.37
2024-02-13T12:04:54.817Z,3.43
2024-02-13T12:07:23.413Z,2.33
2024-02-13T12:09:54.087Z,6.70
2024-02-13T12:12:23.176Z,4.67
2024-02-13T12:14:51.973Z,2.97
2024-02-13T12:17:22.116Z,2.53
2024-02-13T12:19:51.591Z,3.87
2024-02-13T12:22:24.448Z,1.70
2024-02-13T12:24:55.706Z,3.97
2024-02-13T12:27:25.430Z,2.10
2024-02-13T12:29:53.868Z,3.23
2024-02-13T12:32:23.015Z,5.33
2024-02-13T12:34:52.046Z,3.70
2024-02-13T12:37:21.302Z,3.20
2024-02-13T12:39:50.939Z,2.90
2024-02-13T12:42:21.217Z,3.00
2024-02-13T12:44:50.260Z,3.77
2024-02-13T12:47:20.426Z,4.10
2024-02-13T12:49:49.183Z,3.00
2024-02-13T12:52:21.089Z,4.47
2024-02-13T12:54:50.848Z,3.30
2024-02-13T12:57:21.085Z,2.63
2024-02-13T12:59:49.679Z,1.27
2024-02-13T13:02:22.827Z,4.47
2024-02-13T13:04:53.299Z,2.47
2024-02-13T13:07:22.098Z,2.07
2024-02-13T13:09:50.256Z,2.00
2024-02-13T13:12:18.410Z,2.10
2024-02-13T13:14:48.477Z,1.70
2024-02-13T13:17:18.824Z,2.50
2024-02-13T13:19:47.436Z,5.03
2024-02-13T13:22:15.586Z,1.27
2024-02-13T13:24:43.685Z,2.00
2024-02-13T13:27:12.896Z,1.37
2024-02-13T13:29:43.343Z,1.63
2024-02-13T13:32:12.927Z,2.47
2024-02-13T13:34:41.070Z,4.50
2024-02-13T13:37:09.657Z,2.70
2024-02-13T13:39:37.813Z,4.70
2024-02-13T13:42:10.889Z,1.93
2024-02-13T13:44:41.654Z,2.83
2024-02-13T13:47:09.887Z,1.87
2024-02-13T13:49:40.077Z,5.10
2024-02-13T13:52:08.667Z,5.17
2024-02-13T13:54:36.776Z,4.87
2024-02-13T13:57:05.046Z,3.77
2024-02-13T13:59:33.378Z,2.50
2024-02-13T14:02:01.821Z,2.37
2024-02-13T14:04:30.246Z,4.70
2024-02-13T14:07:00.723Z,1.87
2024-02-13T14:09:28.990Z,8.33
2024-02-13T14:11:57.572Z,3.43
2024-02-13T14:14:26.917Z,3.33
2024-02-13T14:16:55.788Z,3.23
2024-02-13T14:19:24.317Z,3.93
2024-02-13T14:21:52.600Z,5.30
2024-02-13T14:24:22.192Z,3.80
2024-02-13T14:26:51.026Z,8.47
2024-02-13T14:29:19.403Z,3.87
2024-02-13T14:31:48.793Z,7.70
2024-02-13T14:34:18.115Z,7.00
2024-02-13T14:36:48.456Z,5.23
2024-02-13T14:39:20.755Z,4.13
2024-02-13T14:41:54.989Z,6.10
2024-02-13T14:44:23.979Z,5.53
2024-02-13T14:46:52.342Z,4.07
2024-02-13T14:49:21.423Z,5.13
2024-02-13T14:51:50.692Z,3.13
2024-02-13T14:54:21.153Z,4.63
2024-02-13T14:56:51.032Z,1.90
2024-02-13T14:59:20.638Z,4.07
2024-02-13T15:01:48.988Z,3.37
2024-02-13T15:04:17.294Z,5.63
2024-02-13T15:06:49.227Z,2.97
2024-02-13T15:09:19.706Z,6.60
2024-02-13T15:11:48.357Z,2.50
2024-02-13T15:14:18.660Z,4.23
2024-02-13T15:16:48.916Z,3.40
2024-02-13T15:19:17.311Z,5.40
2024-02-13T15:21:46.840Z,7.10
2024-02-13T15:24:15.217Z,4.77
2024-02-13T15:26:43.375Z,7.13
2024-02-13T15:29:12.965Z,7.17
2024-02-13T15:31:43.573Z,3.40
2024-02-13T15:34:11.921Z,3.17
2024-02-13T15:37:02.278Z,7.10
2024-02-13T15:39:49.060Z,5.40
2024-02-13T15:42:35.027Z,5.63
2024-02-13T15:45:20.593Z,3.80
2024-02-13T15:47:50.647Z,3.00
2024-02-13T15:50:19.708Z,4.20
2024-02-13T15:52:49.472Z,3.97
2024-02-13T15:55:20.282Z,3.57
2024-02-13T15:57:48.798Z,4.00
2024-02-13T16:00:18.257Z,8.10
2024-02-13T16:02:46.623Z,4.27
2024-02-13T16:05:17.221Z,8.07
2024-02-13T16:07:45.655Z,5.30
2024-02-13T16:10:15.757Z,5.80
2024-02-13T16:12:44.409Z,5.13
2024-02-13T16:15:13.417Z,3.30
2024-02-13T16:17:43.449Z,7.37
2024-02-13T16:20:13.780Z,5.93
2024-02-13T16:22:45.404Z,4.53
2024-02-13T16:25:15.078Z,4.00
2024-02-13T16:27:44.623Z,5.33
2024-02-13T16:30:13.400Z,6.30
2024-02-13T16:32:41.716Z,5.60
2024-02-13T16:35:10.847Z,5.33
2024-02-13T16:37:41.226Z,6.23
2024-02-13T16:40:16.141Z,4.63
2024-02-13T16:42:44.748Z,4.27
2024-02-13T16:45:14.307Z,6.30
2024-02-13T16:47:42.753Z,4.63
2024-02-13T16:50:15.399Z,3.30
2024-02-13T16:52:43.793Z,7.40
2024-02-13T16:55:14.601Z,5.73
2024-02-13T16:57:45.385Z,5.03
2024-02-13T17:00:14.843Z,4.83
2024-02-13T17:02:43.850Z,4.77
2024-02-13T17:05:13.317Z,2.70
2024-02-13T17:07:42.072Z,4.20
2024-02-13T17:10:12.899Z,6.80
2024-02-13T17:12:43.438Z,3.10
2024-02-13T17:15:13.939Z,5.37
2024-02-13T17:17:43.669Z,3.00
2024-02-13T17:20:14.284Z,3.57
2024-02-13T17:22:43.533Z,5.30
2024-02-13T17:25:13.097Z,7.63
2024-02-13T17:27:43.073Z,4.10
2024-02-13T17:30:15.950Z,10.23
2024-02-13T17:32:46.426Z,6.00
2024-02-13T17:35:15.243Z,3.80
2024-02-13T17:37:43.659Z,8.00
2024-02-13T17:40:14.657Z,5.67
2024-02-13T17:42:45.402Z,5.67
2024-02-13T17:45:13.731Z,7.03
2024-02-13T17:47:42.068Z,7.33
2024-02-13T17:50:11.324Z,9.43
2024-02-13T17:52:39.738Z,8.97
2024-02-13T17:55:10.416Z,5.83
2024-02-13T17:57:41.552Z,10.17
2024-02-13T18:00:12.504Z,9.87
2024-02-13T18:02:41.085Z,5.70
2024-02-13T18:05:10.550Z,5.30
2024-02-13T18:07:39.285Z,7.43
2024-02-13T18:10:08.958Z,5.00
2024-02-13T18:12:40.775Z,9.40
2024-02-13T18:15:15.873Z,8.37
2024-02-13T18:17:46.234Z,9.13
2024-02-13T18:20:16.365Z,5.80
2024-02-13T18:22:46.352Z,7.53
2024-02-13T18:25:14.509Z,7.43
2024-02-13T18:27:43.107Z,6.40
2024-02-13T18:30:14.004Z,12.80
2024-02-13T18:32:42.833Z,5.40
2024-02-13T18:35:11.962Z,7.40
2024-02-13T18:37:41.997Z,5.93
2024-02-13T18:40:11.184Z,6.50
2024-02-13T18:42:40.398Z,7.90
2024-02-13T18:45:09.792Z,7.57
2024-02-13T18:47:39.570Z,12.67
2024-02-13T18:50:09.779Z,6.30
2024-02-13T18:52:39.151Z,7.13
2024-02-13T18:55:09.874Z,7.27
2024-02-13T18:57:38.498Z,9.20
2024-02-13T19:00:08.188Z,12.87
2024-02-13T19:02:36.483Z,9.70
2024-02-13T19:05:06.820Z,7.40
2024-02-13T19:07:34.978Z,6.83
2024-02-13T19:10:05.943Z,7.60
2024-02-13T19:12:35.224Z,5.47
2024-02-13T19:15:04.803Z,6.93
2024-02-13T19:17:33.974Z,8.90
2024-02-13T19:20:02.203Z,10.90
2024-02-13T19:22:31.704Z,7.27
2024-02-13T19:25:01.401Z,8.10
2024-02-13T19:27:31.492Z,8.40
2024-02-13T19:29:59.939Z,9.10
2024-02-13T19:32:29.753Z,7.37
2024-02-13T19:34:58.745Z,11.10
2024-02-13T19:37:26.944Z,10.37
2024-02-13T19:39:56.490Z,8.20
2024-02-13T19:42:24.600Z,5.67
2024-02-13T19:44:52.817Z,8.77
2024-02-13T19:47:21.008Z,5.53
2024-02-13T19:49:52.286Z,9.70
2024-02-13T19:52:21.754Z,13.13
2024-02-13T19:54:50.394Z,8.13
2024-02-13T19:57:19.920Z,5.37
2024-02-13T19:59:48.716Z,5.27
2024-02-13T20:02:20.309Z,6.37
2024-02-13T20:04:49.627Z,10.33
2024-02-13T20:07:17.909Z,8.63
2024-02-13T20:09:46.393Z,9.10
2024-02-13T20:12:14.607Z,8.47
2024-02-13T20:14:45.372Z,11.73
2024-02-13T20:17:16.561Z,11.80
2024-02-13T20:19:45.019Z,5.73
2024-02-13T20:22:13.205Z,6.73
2024-02-13T20:24:41.339Z,6.17
2024-02-13T20:27:10.559Z,17.23
2024-02-13T20:29:39.291Z,9.63
2024-02-13T20:32:09.203Z,9.13
2024-02-13T20:34:38.384Z,7.43
2024-02-13T20:37:07.426Z,13.77
2024-02-13T20:39:35.676Z,7.67
2024-02-13T20:42:04.568Z,6.93
2024-02-13T20:44:33.255Z,8.93
2024-02-13T20:47:01.386Z,8.37
2024-02-13T20:49:31.841Z,9.37
2024-02-13T20:51:59.963Z,9.80
2024-02-13T20:54:28.030Z,11.13
2024-02-13T20:56:56.322Z,10.73
2024-02-13T20:59:24.508Z,8.20
2024-02-13T21:01:52.627Z,11.50
2024-02-13T21:04:21.258Z,8.73
2024-02-13T21:06:51.067Z,8.90
2024-02-13T21:09:19.349Z,10.97
2024-02-13T21:11:47.527Z,6.20
2024-02-13T21:14:16.258Z,6.50
2024-02-13T21:16:44.902Z,9.53
2024-02-13T21:19:13.621Z,8.23
2024-02-13T21:22:01.648Z,8.10
2024-02-13T21:24:31.170Z,8.27
2024-02-13T21:26:59.227Z,9.23
2024-02-13T21:29:27.429Z,7.20
2024-02-13T21:31:57.942Z,11.80
2024-02-13T21:34:27.545Z,8.63
2024-02-13T21:36:55.762Z,7.23
2024-02-13T21:39:25.787Z,9.17
2024-02-13T21:41:55.431Z,6.10
2024-02-13T21:44:23.671Z,4.43
2024-02-13T21:46:54.589Z,5.73
2024-02-13T21:49:23.133Z,7.10
2024-02-13T21:51:51.287Z,8.27
2024-02-13T21:54:19.423Z,6.17
2024-02-13T21:56:48.047Z,5.00
2024-02-13T21:59:17.568Z,5.40
2024-02-13T22:01:45.691Z,6.27
2024-02-13T22:04:15.065Z,7.27
2024-02-13T22:06:43.476Z,7.90
2024-02-13T22:09:13.685Z,5.83
2024-02-13T22:11:42.581Z,10.30
2024-02-13T22:14:10.910Z,5.17
2024-02-13T22:16:41.245Z,6.93
2024-02-13T22:19:09.433Z,5.60
2024-02-13T22:21:38.507Z,9.00
2024-02-13T22:24:07.873Z,4.90
2024-02-13T22:26:39.445Z,7.00
2024-02-13T22:29:08.738Z,5.13
2024-02-13T22:31:36.915Z,10.40
2024-02-13T22:34:07.798Z,8.10
2024-02-13T22:36:36.404Z,4.30
2024-02-13T22:39:04.804Z,5.80
2024-02-13T22:41:33.050Z,8.40
2024-02-13T22:44:04.226Z,7.03
2024-02-13T22:46:32.510Z,5.40
2024-02-13T22:49:00.834Z,4.90
2024-02-13T22:51:30.359Z,5.00
2024-02-13T22:53:58.640Z,7.33
2024-02-13T22:56:26.961Z,5.53
2024-02-13T22:58:56.500Z,5.47
2024-02-13T23:01:25.562Z,7.70
2024-02-13T23:03:53.854Z,6.20
2024-02-13T23:06:22.894Z,4.70
2024-02-13T23:08:52.892Z,4.37
2024-02-13T23:11:22.809Z,6.10
2024-02-13T23:13:51.668Z,6.13
2024-02-13T23:16:21.030Z,6.83
2024-02-13T23:18:49.467Z,8.10
2024-02-13T23:21:17.841Z,4.17
2024-02-13T23:23:46.289Z,5.57
2024-02-13T23:26:15.794Z,4.00
2024-02-13T23:28:51.981Z,4.47
2024-02-13T23:31:25.787Z,5.60
2024-02-13T23:33:55.318Z,5.37
2024-02-13T23:36:24.043Z,5.67
2024-02-13T23:38:52.789Z,4.07
2024-02-13T23:41:22.653Z,8.90
2024-02-13T23:43:50.965Z,5.27
2024-02-13T23:46:19.845Z,4.00
2024-02-13T23:48:48.285Z,4.43
2024-02-13T23:51:18.026Z,3.30
2024-02-13T23:53:46.567Z,7.70
2024-02-13T23:56:14.990Z,5.43
2024-02-13T23:58:44.470Z,4.47
